Grand Lake, CO (80447)

9:44 PM MST on February 11, 2016 (GMT -0700)
Sijen Cabin | | Change Station
CLOSE
Current Station
Personal Weather Station
Location: Grand Lake, CO
Elevation: 8474 ft
Nearby Weather Stations

Elev 8474 ft 40.22 °N, 105.86 °W | Updated 12 seconds ago

Clear
Clear
22.5 °F
Feels Like 22 °F
N
0.0
Wind Variable Wind from West
Gusts 0.0 mph

Today
High -- | Low -- °F
--% Chance of Precip.
Yesterday
High -- | Low -- °F
Precip. -- in
Pressure 30.45 in
Visibility 10.0 miles
Clouds Clear
Windchill 22 °F
Dew Point 7 °F
Humidity 50%
Rainfall 0.04 in
Snow Depth Not available.
7:02 AM 5:33 PM
Waxing Crescent, 17% visible
METAR K20V 120437Z AUTO 02003KT 10SM CLR M13/M16 A3045 RMK AO2
Pressure 30.45 in
Visibility 10.0 miles
Clouds Clear
Windchill 22 °F
Dew Point 7 °F
Humidity 50%
Rainfall 0.04 in
Snow Depth Not available.
7:02 AM 5:33 PM
Waxing Crescent, 17% visible
METAR K20V 120437Z AUTO 02003KT 10SM CLR M13/M16 A3045 RMK AO2

10-Day Weather Forecast

Almanac

Astronomy

Feb. 11, 2016 Rise Set
Actual Time
Civil Twilight
Nautical Twilight
Astronomical Twilight
Moon
Length of Visible Light
Length of Day
Tomorrow will be .
, % of the Moon is Illuminated

Today's Extremes

State Highs State Lows

Community

WunderPhotos

Upload Photos

1,892,268 photos uploaded!

WunderBlog® & News

Nearby

Air Quality

  Air Quality AQ Index Pollutant
Not available.

Snow Depth

Station Depth Elevation

Earthquake Activity

City Distance Mag. Time & Date
Minimum magnitude displayed is 2.5.

Coastal Water Temperatures

Place Temperature

Stations

Nearby Weather Stations

Station Location Temp. Windchill Dew Point Humidity Wind Precip. Elev Updated Type
                   

Watches & Warnings

There are currently no watches in effect.